CTN320 BIKF-EGPF
Flight info
| Callsign | CTN320 |
|---|---|
| Flight time | N/A |
| Altitude | 30000 |
| Route | RIMUM1A RIMUM DCT RUMUX DCT RAPAX DCT ERAKA/N0437F370 DCT ETSOM DCT BRUCE BRUCE1G |
| Aircraft | A20N/M-SDE2E3FGHIJ1RWXY/LB1 |
Departure
| Time | 2026-05-06 18:15 |
|---|---|
| Airport | Keflavik International Airport (BIKF) |
Arrival
| Time | N/A |
|---|---|
| Airport | Glasgow Airport (EGPF) |
| Time | Latitude | Longitude | Altitude | Speed | Heading |
|---|---|---|---|---|---|
| 2026-05-06 17:47 | 63.99482 | -22.62313 | 161 ft | 0 kts | 269° |
| 2026-05-06 18:03 | 63.99482 | -22.62302 | 161 ft | 1 kts | 269° |
| 2026-05-06 18:03 | 63.99482 | -22.62261 | 161 ft | 3 kts | 269° |
| 2026-05-06 18:04 | 63.99482 | -22.62210 | 162 ft | 3 kts | 265° |
| 2026-05-06 18:04 | 63.99486 | -22.62161 | 162 ft | 3 kts | 251° |
| 2026-05-06 18:04 | 63.99496 | -22.62116 | 163 ft | 3 kts | 228° |
| 2026-05-06 18:04 | 63.99509 | -22.62090 | 163 ft | 2 kts | 199° |
| 2026-05-06 18:05 | 63.99510 | -22.62089 | 163 ft | 0 kts | 195° |
| 2026-05-06 18:06 | 63.99494 | -22.62098 | 163 ft | 7 kts | 191° |
| 2026-05-06 18:06 | 63.99436 | -22.62050 | 163 ft | 11 kts | 153° |
| 2026-05-06 18:07 | 63.99359 | -22.61994 | 163 ft | 13 kts | 178° |
| 2026-05-06 18:07 | 63.99273 | -22.61988 | 162 ft | 13 kts | 179° |
| 2026-05-06 18:07 | 63.99190 | -22.61977 | 162 ft | 7 kts | 156° |
| 2026-05-06 18:07 | 63.99174 | -22.61885 | 162 ft | 7 kts | 94° |
| 2026-05-06 18:08 | 63.99171 | -22.61756 | 164 ft | 10 kts | 91° |
| 2026-05-06 18:08 | 63.99173 | -22.61546 | 166 ft | 16 kts | 88° |
| 2026-05-06 18:08 | 63.99175 | -22.61272 | 168 ft | 18 kts | 89° |
| 2026-05-06 18:08 | 63.99174 | -22.60973 | 169 ft | 19 kts | 90° |
| 2026-05-06 18:09 | 63.99174 | -22.60835 | 169 ft | 0 kts | 90° |
| 2026-05-06 18:09 | 63.99174 | -22.60837 | 169 ft | 1 kts | 90° |
| 2026-05-06 18:09 | 63.99174 | -22.60938 | 169 ft | 0 kts | 90° |
| 2026-05-06 18:09 | 63.99173 | -22.60935 | 169 ft | 0 kts | 103° |
| 2026-05-06 18:10 | 63.99164 | -22.60930 | 169 ft | 3 kts | 173° |
| 2026-05-06 18:10 | 63.99112 | -22.60938 | 169 ft | 11 kts | 184° |
| 2026-05-06 18:10 | 63.99050 | -22.60943 | 168 ft | 14 kts | 181° |
| 2026-05-06 18:10 | 63.98940 | -22.60942 | 167 ft | 17 kts | 178° |
| 2026-05-06 18:11 | 63.98813 | -22.60938 | 166 ft | 19 kts | 179° |
| 2026-05-06 18:11 | 63.98674 | -22.60937 | 164 ft | 21 kts | 179° |
| 2026-05-06 18:11 | 63.98517 | -22.60929 | 161 ft | 23 kts | 178° |
| 2026-05-06 18:11 | 63.98352 | -22.60929 | 161 ft | 24 kts | 182° |
| 2026-05-06 18:12 | 63.98182 | -22.60938 | 161 ft | 25 kts | 181° |
| 2026-05-06 18:12 | 63.98005 | -22.60945 | 159 ft | 26 kts | 181° |
| 2026-05-06 18:12 | 63.97819 | -22.60949 | 158 ft | 27 kts | 179° |
| 2026-05-06 18:12 | 63.97625 | -22.60947 | 156 ft | 28 kts | 180° |
| 2026-05-06 18:13 | 63.97425 | -22.60945 | 154 ft | 29 kts | 180° |
| 2026-05-06 18:13 | 63.97218 | -22.60947 | 152 ft | 30 kts | 180° |
| 2026-05-06 18:13 | 63.97007 | -22.60948 | 150 ft | 31 kts | 179° |
| 2026-05-06 18:13 | 63.96790 | -22.60944 | 147 ft | 31 kts | 180° |
| 2026-05-06 18:14 | 63.96572 | -22.60948 | 145 ft | 28 kts | 180° |
| 2026-05-06 18:14 | 63.96459 | -22.60890 | 144 ft | 6 kts | 112° |
| 2026-05-06 18:14 | 63.96462 | -22.60778 | 144 ft | 10 kts | 92° |
| 2026-05-06 18:14 | 63.96478 | -22.60559 | 144 ft | 15 kts | 43° |
| 2026-05-06 18:15 | 63.96616 | -22.60547 | 146 ft | 43 kts | 1° |
| 2026-05-06 18:15 | 63.97191 | -22.60555 | 151 ft | 118 kts | 0° |
| 2026-05-06 18:15 | 63.98213 | -22.60552 | 226 ft | 169 kts | 360° |
| 2026-05-06 18:15 | 63.99396 | -22.60540 | 844 ft | 178 kts | 359° |
| 2026-05-06 18:16 | 64.00689 | -22.60536 | 1478 ft | 195 kts | 359° |
| 2026-05-06 18:16 | 64.02112 | -22.60538 | 2083 ft | 216 kts | 359° |
| 2026-05-06 18:16 | 64.03686 | -22.60484 | 2722 ft | 238 kts | 7° |
| 2026-05-06 18:16 | 64.05289 | -22.59055 | 3338 ft | 261 kts | 37° |
| 2026-05-06 18:17 | 64.06500 | -22.55812 | 3962 ft | 280 kts | 64° |
| 2026-05-06 18:17 | 64.06988 | -22.51391 | 4583 ft | 298 kts | 88° |
| 2026-05-06 18:17 | 64.06657 | -22.46603 | 5197 ft | 315 kts | 112° |
| 2026-05-06 18:17 | 64.05455 | -22.42319 | 5814 ft | 330 kts | 135° |
| 2026-05-06 18:18 | 64.03533 | -22.39300 | 6423 ft | 344 kts | 158° |
| 2026-05-06 18:18 | 64.01181 | -22.37844 | 7036 ft | 358 kts | 171° |
| 2026-05-06 18:18 | 63.98673 | -22.37001 | 7647 ft | 371 kts | 173° |
| 2026-05-06 18:18 | 63.96080 | -22.36144 | 8249 ft | 383 kts | 171° |
| 2026-05-06 18:19 | 63.93445 | -22.35110 | 8855 ft | 393 kts | 170° |
| 2026-05-06 18:19 | 63.90741 | -22.33899 | 9592 ft | 399 kts | 169° |
| 2026-05-06 18:19 | 63.88006 | -22.32589 | 10389 ft | 403 kts | 168° |
| 2026-05-06 18:19 | 63.85250 | -22.31234 | 11169 ft | 408 kts | 168° |
| 2026-05-06 18:20 | 63.82467 | -22.29857 | 11955 ft | 412 kts | 168° |
| 2026-05-06 18:20 | 63.79646 | -22.28465 | 12712 ft | 417 kts | 168° |
| 2026-05-06 18:20 | 63.76797 | -22.27065 | 13467 ft | 421 kts | 168° |
| 2026-05-06 18:20 | 63.73922 | -22.25657 | 14212 ft | 426 kts | 168° |
| 2026-05-06 18:21 | 63.71003 | -22.24233 | 14956 ft | 430 kts | 168° |
| 2026-05-06 18:21 | 63.68060 | -22.22801 | 15689 ft | 435 kts | 168° |
| 2026-05-06 18:21 | 63.65087 | -22.21359 | 16412 ft | 439 kts | 168° |
| 2026-05-06 18:21 | 63.62082 | -22.19904 | 17122 ft | 444 kts | 168° |
| 2026-05-06 18:22 | 63.59044 | -22.18437 | 17815 ft | 448 kts | 168° |
| 2026-05-06 18:22 | 63.55983 | -22.16961 | 18485 ft | 453 kts | 168° |
| 2026-05-06 18:22 | 63.52905 | -22.15224 | 19134 ft | 457 kts | 163° |
| 2026-05-06 18:22 | 63.49905 | -22.12730 | 19758 ft | 462 kts | 156° |
| 2026-05-06 18:23 | 63.47025 | -22.09716 | 20359 ft | 466 kts | 155° |
| 2026-05-06 18:23 | 63.44087 | -22.06596 | 20961 ft | 469 kts | 155° |
| 2026-05-06 18:23 | 63.41128 | -22.03473 | 21561 ft | 471 kts | 155° |
| 2026-05-06 18:23 | 63.38152 | -22.00356 | 22162 ft | 473 kts | 155° |
| 2026-05-06 18:24 | 63.35164 | -21.97247 | 22768 ft | 474 kts | 155° |
| 2026-05-06 18:24 | 63.32163 | -21.94138 | 23364 ft | 475 kts | 155° |
| 2026-05-06 18:24 | 63.29171 | -21.91046 | 23958 ft | 475 kts | 155° |
| 2026-05-06 18:24 | 63.26174 | -21.87957 | 24562 ft | 474 kts | 155° |
| 2026-05-06 18:25 | 63.23192 | -21.84892 | 25160 ft | 473 kts | 155° |
| 2026-05-06 18:25 | 63.20218 | -21.81840 | 25758 ft | 469 kts | 155° |
| 2026-05-06 18:25 | 63.17269 | -21.78821 | 26356 ft | 464 kts | 155° |
| 2026-05-06 18:25 | 63.14350 | -21.75840 | 26949 ft | 460 kts | 155° |
| 2026-05-06 18:26 | 63.11478 | -21.72818 | 27547 ft | 455 kts | 152° |
| 2026-05-06 18:26 | 63.08775 | -21.69252 | 28138 ft | 450 kts | 146° |
| 2026-05-06 18:26 | 63.06297 | -21.65089 | 28604 ft | 448 kts | 139° |
| 2026-05-06 18:26 | 63.04030 | -21.60310 | 28745 ft | 454 kts | 133° |
| 2026-05-06 18:27 | 62.99834 | -21.49752 | 28890 ft | 467 kts | 131° |
| 2026-05-06 18:27 | 62.95478 | -21.38872 | 29019 ft | 479 kts | 131° |
| 2026-05-06 18:28 | 62.91008 | -21.27850 | 29113 ft | 486 kts | 132° |
| 2026-05-06 18:28 | 62.86485 | -21.16771 | 29362 ft | 487 kts | 132° |
| 2026-05-06 18:29 | 62.84222 | -21.11247 | 29518 ft | 487 kts | 132° |
| 2026-05-06 18:29 | 62.81956 | -21.05731 | 29681 ft | 487 kts | 132° |
| 2026-05-06 18:29 | 62.77433 | -20.94761 | 29763 ft | 485 kts | 132° |
| 2026-05-06 18:30 | 62.72932 | -20.83897 | 29764 ft | 485 kts | 132° |
| 2026-05-06 18:30 | 62.68395 | -20.73001 | 29755 ft | 485 kts | 132° |
| 2026-05-06 18:31 | 62.63850 | -20.62137 | 29761 ft | 485 kts | 132° |
| 2026-05-06 18:31 | 62.59294 | -20.51301 | 29763 ft | 485 kts | 133° |
| 2026-05-06 18:32 | 62.54727 | -20.40492 | 29764 ft | 485 kts | 133° |
| 2026-05-06 18:32 | 62.50155 | -20.29724 | 29764 ft | 485 kts | 133° |
| 2026-05-06 18:33 | 62.45574 | -20.18988 | 29756 ft | 485 kts | 133° |
| 2026-05-06 18:33 | 62.40988 | -20.08291 | 29756 ft | 485 kts | 133° |
| 2026-05-06 18:34 | 62.36298 | -19.97817 | 29765 ft | 485 kts | 138° |
| 2026-05-06 18:34 | 62.31241 | -19.88164 | 29757 ft | 485 kts | 138° |
| 2026-05-06 18:35 | 62.26197 | -19.78530 | 29759 ft | 485 kts | 139° |
| 2026-05-06 18:35 | 62.21140 | -19.68919 | 29765 ft | 485 kts | 139° |
| 2026-05-06 18:36 | 62.16110 | -19.59407 | 29760 ft | 485 kts | 139° |
| 2026-05-06 18:36 | 62.11040 | -19.49863 | 29755 ft | 485 kts | 139° |
| 2026-05-06 18:37 | 62.05962 | -19.40349 | 29760 ft | 485 kts | 139° |
| 2026-05-06 18:37 | 62.00877 | -19.30868 | 29762 ft | 485 kts | 139° |
| 2026-05-06 18:38 | 61.95787 | -19.21420 | 29762 ft | 485 kts | 139° |
| 2026-05-06 18:38 | 61.90691 | -19.12003 | 29763 ft | 485 kts | 139° |
| 2026-05-06 18:39 | 61.85621 | -19.02679 | 29766 ft | 485 kts | 139° |
| 2026-05-06 18:40 | 61.77946 | -18.88642 | 29759 ft | 485 kts | 139° |
| 2026-05-06 18:40 | 61.72829 | -18.79337 | 29756 ft | 485 kts | 139° |
| 2026-05-06 18:41 | 61.67704 | -18.70060 | 29759 ft | 485 kts | 139° |
| 2026-05-06 18:41 | 61.62607 | -18.60875 | 29759 ft | 485 kts | 140° |
| 2026-05-06 18:42 | 61.57465 | -18.51652 | 29763 ft | 485 kts | 140° |
| 2026-05-06 18:42 | 61.52327 | -18.42472 | 29756 ft | 485 kts | 139° |
| 2026-05-06 18:43 | 61.47768 | -18.32063 | 29758 ft | 486 kts | 126° |
| 2026-05-06 18:43 | 61.44187 | -18.21754 | 29764 ft | 486 kts | 126° |
| 2026-05-06 18:43 | 61.42192 | -18.16020 | 31492 ft | 491 kts | 127° |
| 2026-05-06 18:44 | 61.40183 | -18.10263 | 31118 ft | 490 kts | 127° |
| 2026-05-06 18:44 | 61.38182 | -18.04544 | 30755 ft | 485 kts | 127° |
| 2026-05-06 18:44 | 61.36205 | -17.98904 | 30383 ft | 481 kts | 127° |
| 2026-05-06 18:44 | 61.34236 | -17.93301 | 30014 ft | 477 kts | 127° |
| 2026-05-06 18:45 | 61.32276 | -17.87739 | 29704 ft | 471 kts | 127° |
| 2026-05-06 18:45 | 61.28350 | -17.76654 | 29715 ft | 483 kts | 127° |
| 2026-05-06 18:46 | 61.24337 | -17.65395 | 29704 ft | 492 kts | 127° |
| 2026-05-06 18:46 | 61.20233 | -17.53940 | 29697 ft | 494 kts | 128° |
| 2026-05-06 18:47 | 61.16115 | -17.42508 | 29686 ft | 495 kts | 128° |
| 2026-05-06 18:47 | 61.11979 | -17.31074 | 29671 ft | 497 kts | 128° |
| 2026-05-06 18:48 | 61.07826 | -17.19652 | 29664 ft | 497 kts | 128° |
| 2026-05-06 18:48 | 61.03647 | -17.08215 | 29654 ft | 499 kts | 129° |
| 2026-05-06 18:49 | 60.99447 | -16.96780 | 29639 ft | 500 kts | 129° |
| 2026-05-06 18:49 | 60.95290 | -16.85514 | 29641 ft | 503 kts | 129° |
| 2026-05-06 18:50 | 60.91050 | -16.74084 | 29625 ft | 501 kts | 130° |
| 2026-05-06 18:50 | 60.86804 | -16.62685 | 29620 ft | 504 kts | 130° |
| 2026-05-06 18:51 | 60.82543 | -16.51318 | 29593 ft | 502 kts | 130° |
| 2026-05-06 18:51 | 60.78267 | -16.39944 | 29602 ft | 506 kts | 131° |
| 2026-05-06 18:52 | 60.73961 | -16.28552 | 29577 ft | 506 kts | 131° |
| 2026-05-06 18:52 | 60.69645 | -16.17195 | 29569 ft | 504 kts | 131° |
| 2026-05-06 18:53 | 60.65325 | -16.05891 | 29554 ft | 506 kts | 131° |
| 2026-05-06 18:53 | 60.61004 | -15.94637 | 29549 ft | 503 kts | 132° |
| 2026-05-06 18:54 | 60.56661 | -15.83390 | 29535 ft | 507 kts | 132° |
| 2026-05-06 18:54 | 60.52329 | -15.72208 | 29530 ft | 506 kts | 133° |
| 2026-05-06 18:55 | 60.47940 | -15.60945 | 29521 ft | 505 kts | 133° |
| 2026-05-06 18:55 | 60.43590 | -15.49835 | 29513 ft | 507 kts | 133° |
| 2026-05-06 18:56 | 60.39189 | -15.38648 | 29505 ft | 507 kts | 133° |
| 2026-05-06 18:56 | 60.34803 | -15.27544 | 29497 ft | 505 kts | 133° |
| 2026-05-06 18:57 | 60.30407 | -15.16480 | 29488 ft | 505 kts | 133° |
| 2026-05-06 18:57 | 60.26006 | -15.05455 | 29484 ft | 504 kts | 133° |
| 2026-05-06 18:58 | 60.21592 | -14.94446 | 29468 ft | 506 kts | 134° |
| 2026-05-06 18:58 | 60.17161 | -14.83448 | 29468 ft | 507 kts | 134° |
| 2026-05-06 18:59 | 60.12732 | -14.72504 | 29460 ft | 508 kts | 135° |
| 2026-05-06 18:59 | 60.08252 | -14.61490 | 29450 ft | 510 kts | 135° |
| 2026-05-06 19:00 | 60.04480 | -14.52257 | 29443 ft | 513 kts | 135° |
| 2026-05-06 19:00 | 59.99978 | -14.41281 | 29439 ft | 514 kts | 136° |
| 2026-05-06 19:01 | 59.95418 | -14.30217 | 29438 ft | 516 kts | 136° |
| 2026-05-06 19:01 | 59.91195 | -14.20016 | 29433 ft | 518 kts | 137° |
| 2026-05-06 19:02 | 59.86586 | -14.08935 | 29433 ft | 520 kts | 137° |
| 2026-05-06 19:02 | 59.81958 | -13.97862 | 29433 ft | 521 kts | 137° |
| 2026-05-06 19:03 | 59.77314 | -13.86806 | 29425 ft | 522 kts | 138° |
| 2026-05-06 19:03 | 59.72646 | -13.75746 | 29442 ft | 523 kts | 138° |
| 2026-05-06 19:04 | 59.67961 | -13.64698 | 29440 ft | 524 kts | 138° |
| 2026-05-06 19:04 | 59.63287 | -13.53729 | 29430 ft | 525 kts | 138° |
| 2026-05-06 19:05 | 59.58561 | -13.42691 | 29438 ft | 526 kts | 138° |
| 2026-05-06 19:05 | 59.53828 | -13.31687 | 29442 ft | 526 kts | 138° |
| 2026-05-06 19:06 | 59.49074 | -13.20691 | 29448 ft | 526 kts | 138° |
| 2026-05-06 19:06 | 59.44320 | -13.09748 | 29447 ft | 526 kts | 138° |
| 2026-05-06 19:07 | 59.39582 | -12.98895 | 29453 ft | 526 kts | 138° |
| 2026-05-06 19:07 | 59.34805 | -12.88004 | 29457 ft | 527 kts | 138° |
| 2026-05-06 19:08 | 59.30013 | -12.77129 | 29460 ft | 527 kts | 138° |
| 2026-05-06 19:08 | 59.25212 | -12.66283 | 29464 ft | 527 kts | 138° |
| 2026-05-06 19:09 | 59.20394 | -12.55451 | 29467 ft | 528 kts | 138° |
| 2026-05-06 19:09 | 59.15566 | -12.44644 | 29470 ft | 528 kts | 138° |
| 2026-05-06 19:10 | 59.10727 | -12.33865 | 29478 ft | 528 kts | 138° |
| 2026-05-06 19:10 | 59.05921 | -12.23207 | 29483 ft | 528 kts | 138° |
| 2026-05-06 19:11 | 59.01066 | -12.12491 | 29480 ft | 528 kts | 138° |
| 2026-05-06 19:11 | 58.96204 | -12.01809 | 29490 ft | 528 kts | 138° |
| 2026-05-06 19:12 | 58.92896 | -11.94587 | 29490 ft | 528 kts | 138° |
| 2026-05-06 19:12 | 58.88010 | -11.83959 | 29494 ft | 528 kts | 138° |
| 2026-05-06 19:13 | 58.83135 | -11.73351 | 29500 ft | 528 kts | 138° |
| 2026-05-06 19:13 | 58.78252 | -11.62791 | 29513 ft | 527 kts | 138° |
| 2026-05-06 19:14 | 58.73355 | -11.52260 | 29509 ft | 528 kts | 138° |
| 2026-05-06 19:14 | 58.68481 | -11.41827 | 29514 ft | 527 kts | 138° |
| 2026-05-06 19:15 | 58.63574 | -11.31370 | 29522 ft | 527 kts | 138° |
| 2026-05-06 19:15 | 58.58652 | -11.20927 | 29524 ft | 527 kts | 138° |
| 2026-05-06 19:16 | 58.53726 | -11.10524 | 29529 ft | 527 kts | 138° |
| 2026-05-06 19:16 | 58.48793 | -11.00153 | 29536 ft | 526 kts | 138° |
| 2026-05-06 19:17 | 58.43857 | -10.89823 | 29546 ft | 526 kts | 138° |
| 2026-05-06 19:17 | 58.38918 | -10.79531 | 29551 ft | 525 kts | 138° |
| 2026-05-06 19:18 | 58.33982 | -10.69294 | 29548 ft | 525 kts | 138° |
| 2026-05-06 19:18 | 58.29068 | -10.59144 | 29559 ft | 524 kts | 138° |
| 2026-05-06 19:19 | 58.24123 | -10.48978 | 29575 ft | 524 kts | 138° |
| 2026-05-06 19:19 | 58.19174 | -10.38847 | 29576 ft | 523 kts | 138° |
| 2026-05-06 19:20 | 58.14227 | -10.28761 | 29583 ft | 522 kts | 138° |
| 2026-05-06 19:20 | 58.09284 | -10.18710 | 29585 ft | 522 kts | 138° |
| 2026-05-06 19:21 | 58.04331 | -10.08675 | 29589 ft | 521 kts | 138° |
| 2026-05-06 19:21 | 57.99733 | -9.98065 | 29599 ft | 529 kts | 124° |
| 2026-05-06 19:22 | 57.96748 | -9.85284 | 29598 ft | 534 kts | 114° |
| 2026-05-06 19:22 | 57.94034 | -9.72377 | 29602 ft | 533 kts | 115° |
| 2026-05-06 19:23 | 57.91255 | -9.59457 | 29611 ft | 532 kts | 115° |
| 2026-05-06 19:23 | 57.87920 | -9.47152 | 29622 ft | 525 kts | 128° |
| 2026-05-06 19:24 | 57.83464 | -9.36356 | 29633 ft | 522 kts | 133° |
| 2026-05-06 19:24 | 57.78957 | -9.25699 | 29628 ft | 521 kts | 133° |
| 2026-05-06 19:24 | 57.76709 | -9.20381 | 29516 ft | 518 kts | 133° |
| 2026-05-06 19:25 | 57.74479 | -9.15118 | 29008 ft | 514 kts | 133° |
| 2026-05-06 19:25 | 57.72262 | -9.09898 | 28346 ft | 510 kts | 133° |
| 2026-05-06 19:25 | 57.70062 | -9.04732 | 27688 ft | 505 kts | 133° |
| 2026-05-06 19:25 | 57.67881 | -8.99625 | 26816 ft | 503 kts | 133° |
| 2026-05-06 19:26 | 57.65684 | -8.94499 | 25764 ft | 507 kts | 133° |
| 2026-05-06 19:26 | 57.63485 | -8.89376 | 25121 ft | 507 kts | 133° |
| 2026-05-06 19:26 | 57.61239 | -8.84165 | 24811 ft | 521 kts | 133° |
| 2026-05-06 19:26 | 57.58965 | -8.78888 | 24686 ft | 520 kts | 133° |
| 2026-05-06 19:27 | 57.56699 | -8.73635 | 24652 ft | 520 kts | 133° |
| 2026-05-06 19:27 | 57.54432 | -8.68391 | 24662 ft | 520 kts | 133° |
| 2026-05-06 19:27 | 57.52190 | -8.63220 | 24658 ft | 519 kts | 133° |
| 2026-05-06 19:27 | 57.49922 | -8.58000 | 24665 ft | 519 kts | 133° |
| 2026-05-06 19:28 | 57.47650 | -8.52784 | 24662 ft | 519 kts | 133° |
| 2026-05-06 19:28 | 57.45380 | -8.47582 | 24667 ft | 518 kts | 133° |
| 2026-05-06 19:28 | 57.43108 | -8.42389 | 24668 ft | 518 kts | 133° |
| 2026-05-06 19:28 | 57.40834 | -8.37202 | 24666 ft | 518 kts | 133° |
| 2026-05-06 19:29 | 57.38559 | -8.32025 | 24670 ft | 518 kts | 133° |
| 2026-05-06 19:29 | 57.36281 | -8.26852 | 24678 ft | 517 kts | 133° |
| 2026-05-06 19:29 | 57.34001 | -8.21685 | 24674 ft | 517 kts | 133° |
| 2026-05-06 19:29 | 57.31714 | -8.16515 | 24678 ft | 517 kts | 133° |
| 2026-05-06 19:30 | 57.29433 | -8.11367 | 24679 ft | 517 kts | 133° |
| 2026-05-06 19:30 | 57.27152 | -8.06232 | 24683 ft | 517 kts | 133° |
| 2026-05-06 19:30 | 57.24869 | -8.01104 | 24679 ft | 517 kts | 133° |
| 2026-05-06 19:30 | 57.22584 | -7.95982 | 24685 ft | 517 kts | 133° |
| 2026-05-06 19:31 | 57.20296 | -7.90863 | 24685 ft | 516 kts | 133° |
| 2026-05-06 19:31 | 57.18009 | -7.85760 | 24691 ft | 516 kts | 133° |
| 2026-05-06 19:31 | 57.13460 | -7.75637 | 24688 ft | 516 kts | 133° |
| 2026-05-06 19:32 | 57.11169 | -7.70557 | 24691 ft | 515 kts | 133° |
| 2026-05-06 19:32 | 57.08874 | -7.65479 | 24692 ft | 515 kts | 133° |
| 2026-05-06 19:32 | 57.06581 | -7.60414 | 24692 ft | 515 kts | 133° |
| 2026-05-06 19:32 | 57.04287 | -7.55359 | 24694 ft | 515 kts | 133° |
| 2026-05-06 19:33 | 57.01982 | -7.50293 | 24697 ft | 521 kts | 133° |
| 2026-05-06 19:33 | 56.99640 | -7.45158 | 24695 ft | 525 kts | 133° |
| 2026-05-06 19:33 | 56.97297 | -7.40026 | 24695 ft | 525 kts | 133° |
| 2026-05-06 19:33 | 56.94953 | -7.34903 | 24698 ft | 525 kts | 133° |
| 2026-05-06 19:34 | 56.92609 | -7.29790 | 24697 ft | 525 kts | 133° |
| 2026-05-06 19:34 | 56.90260 | -7.24678 | 24702 ft | 524 kts | 133° |
| 2026-05-06 19:34 | 56.87906 | -7.19569 | 24703 ft | 524 kts | 133° |
| 2026-05-06 19:34 | 56.85550 | -7.14464 | 24703 ft | 525 kts | 133° |
| 2026-05-06 19:35 | 56.83202 | -7.09385 | 24605 ft | 521 kts | 133° |
| 2026-05-06 19:35 | 56.80867 | -7.04346 | 24056 ft | 518 kts | 133° |
| 2026-05-06 19:35 | 56.78547 | -6.99350 | 23312 ft | 513 kts | 133° |
| 2026-05-06 19:35 | 56.76419 | -6.94774 | 22587 ft | 506 kts | 133° |
| 2026-05-06 19:36 | 56.74152 | -6.89913 | 21788 ft | 499 kts | 134° |
| 2026-05-06 19:36 | 56.71920 | -6.85135 | 21013 ft | 492 kts | 134° |
| 2026-05-06 19:36 | 56.69717 | -6.80431 | 20258 ft | 484 kts | 134° |
| 2026-05-06 19:36 | 56.67553 | -6.75818 | 19871 ft | 476 kts | 134° |
| 2026-05-06 19:37 | 56.65382 | -6.71209 | 19859 ft | 482 kts | 134° |
| 2026-05-06 19:37 | 56.64813 | -6.70002 | 19937 ft | 483 kts | 134° |
| 2026-05-06 19:37 | 56.62823 | -6.65785 | 20173 ft | 485 kts | 134° |
| 2026-05-06 19:37 | 56.61368 | -6.62704 | 20334 ft | 486 kts | 134° |
| 2026-05-06 19:38 | 56.58411 | -6.56452 | 20661 ft | 489 kts | 134° |
| 2026-05-06 19:38 | 56.57108 | -6.53702 | 20786 ft | 491 kts | 134° |